Time;durP1;ratioP1;P1;durP2;ratioP2;P2;SDS_P1;SDS_P2;PMS_P1;PMS_P2;Temp;Humidity;BMP_temperature;BMP_pressure;BME280_temperature;BME280_humidity;BME280_pressure;Samples;Min_cycle;Max_cycle;Signal;HPM_P1;HPM_P2
2023/10/26 00:01:16;;;;;;;0.63;0.63;;;11.30;99.90;;;;;;5115585;28;20165;-75
2023/10/26 00:03:42;;;;;;;0.10;0.10;;;11.20;99.90;;;;;;5115158;28;20036;-75
2023/10/26 00:06:08;;;;;;;0.10;0.10;;;11.30;99.90;;;;;;5114418;28;20120;-76
2023/10/26 00:08:33;;;;;;;0.38;0.38;;;11.20;99.90;;;;;;5115490;28;20058;-75
2023/10/26 00:11:03;;;;;;;0.10;0.10;;;11.10;99.90;;;;;;5114986;28;20042;-76
2023/10/26 00:13:28;;;;;;;0.03;0.03;;;11.00;99.90;;;;;;5115259;28;20530;-73
2023/10/26 00:15:54;;;;;;;0.10;0.10;;;10.90;99.90;;;;;;5114886;28;20016;-75
2023/10/26 00:18:20;;;;;;;0.00;0.00;;;10.80;99.90;;;;;;5113944;28;20100;-75
2023/10/26 00:20:46;;;;;;;0.10;0.10;;;10.80;99.90;;;;;;5115023;28;20057;-76
2023/10/26 00:23:12;;;;;;;0.10;0.10;;;10.90;99.90;;;;;;5113832;28;20023;-75
2023/10/26 00:25:38;;;;;;;0.10;0.10;;;10.80;99.90;;;;;;5113467;28;20488;-75
2023/10/26 00:28:04;;;;;;;0.10;0.10;;;10.80;99.90;;;;;;5115048;28;20015;-73
2023/10/26 00:30:29;;;;;;;0.05;0.05;;;10.70;99.90;;;;;;5113657;28;20024;-73
2023/10/26 00:32:55;;;;;;;0.10;0.10;;;10.70;99.90;;;;;;5113828;28;20025;-72
2023/10/26 00:35:21;;;;;;;0.03;0.03;;;10.50;99.90;;;;;;5109173;28;20023;-72
2023/10/26 00:37:50;;;;;;;0.00;0.00;;;10.50;99.90;;;;;;5106142;28;20015;-72
2023/10/26 00:40:16;;;;;;;0.10;0.10;;;10.50;99.90;;;;;;5113368;28;20414;-73
2023/10/26 00:42:42;;;;;;;1.48;1.38;;;10.50;99.90;;;;;;5114801;28;20016;-73
2023/10/26 00:45:08;;;;;;;0.00;0.00;;;10.50;99.90;;;;;;5113039;28;20101;-73
2023/10/26 00:47:34;;;;;;;0.05;0.05;;;10.50;99.90;;;;;;5113262;28;20023;-72
2023/10/26 00:50:00;;;;;;;0.00;0.00;;;10.50;99.90;;;;;;5114661;28;20427;-73
2023/10/26 00:52:26;;;;;;;0.08;0.08;;;10.50;99.90;;;;;;5114481;28;20092;-72
2023/10/26 00:54:53;;;;;;;1.20;0.93;;;10.20;99.90;;;;;;5113267;28;20046;-73
2023/10/26 00:57:22;;;;;;;0.93;0.63;;;9.90;99.90;;;;;;5111959;28;20106;-73
2023/10/26 00:59:50;;;;;;;2.90;2.67;;;9.60;99.90;;;;;;5114250;28;20028;-72
2023/10/26 01:02:16;;;;;;;7.28;2.97;;;9.50;99.90;;;;;;5112767;28;20027;-72
2023/10/26 01:04:42;;;;;;;0.15;0.15;;;9.50;99.90;;;;;;5113073;28;20047;-73
2023/10/26 01:07:08;;;;;;;0.30;0.30;;;9.60;99.90;;;;;;5113724;28;20034;-73
2023/10/26 01:09:34;;;;;;;0.10;0.10;;;9.60;99.90;;;;;;5114200;28;20016;-73
2023/10/26 01:12:01;;;;;;;0.20;0.20;;;9.70;99.90;;;;;;5112941;28;20521;-72
2023/10/26 01:14:28;;;;;;;0.10;0.10;;;9.90;99.90;;;;;;5112878;28;20031;-73
2023/10/26 01:16:57;;;;;;;0.00;0.00;;;10.10;99.90;;;;;;5112916;28;20037;-72
2023/10/26 01:19:40;;;;;;;0.10;0.10;;;10.20;99.90;;;;;;5113637;28;20103;-72
2023/10/26 01:22:06;;;;;;;0.08;0.08;;;10.50;99.90;;;;;;5113990;28;20032;-75
2023/10/26 01:24:32;;;;;;;0.10;0.10;;;10.50;99.90;;;;;;5113957;28;20024;-75
2023/10/26 01:26:58;;;;;;;0.10;0.10;;;10.40;99.90;;;;;;5112700;28;20031;-76
2023/10/26 01:29:23;;;;;;;0.10;0.10;;;10.30;99.90;;;;;;5113632;28;20047;-75
2023/10/26 01:31:49;;;;;;;0.00;0.00;;;10.40;99.90;;;;;;5113729;28;20038;-76
2023/10/26 01:34:15;;;;;;;0.10;0.10;;;10.50;99.90;;;;;;5112290;28;20030;-75
2023/10/26 01:36:40;;;;;;;0.00;0.00;;;10.50;99.90;;;;;;5099036;28;20022;-75
2023/10/26 01:39:06;;;;;;;0.10;0.10;;;10.50;99.90;;;;;;5112450;28;20039;-75
2023/10/26 01:41:32;;;;;;;0.10;0.10;;;10.60;99.90;;;;;;5113486;28;20023;-75
2023/10/26 01:44:00;;;;;;;0.10;0.10;;;10.70;99.90;;;;;;5112285;28;20024;-75
2023/10/26 01:46:25;;;;;;;0.10;0.10;;;10.80;99.90;;;;;;5112365;28;20055;-76
2023/10/26 01:48:51;;;;;;;0.10;0.10;;;10.70;99.90;;;;;;5113286;28;20051;-75
2023/10/26 01:51:17;;;;;;;0.00;0.00;;;10.70;99.90;;;;;;5113265;28;20024;-76
2023/10/26 01:53:43;;;;;;;2.28;1.75;;;10.80;99.90;;;;;;5113210;28;20057;-74
2023/10/26 01:56:09;;;;;;;0.10;0.10;;;10.80;99.90;;;;;;5113703;28;20391;-76
2023/10/26 01:58:35;;;;;;;0.00;0.00;;;10.80;99.90;;;;;;5112009;28;20035;-76
2023/10/26 02:01:01;;;;;;;0.08;0.08;;;10.80;99.90;;;;;;5113433;28;20054;-75
2023/10/26 02:03:27;;;;;;;0.75;0.60;;;10.70;99.90;;;;;;5111747;28;20063;-75
2023/10/26 02:05:53;;;;;;;0.05;0.05;;;10.70;99.90;;;;;;5111571;28;20106;-75
2023/10/26 02:08:19;;;;;;;0.55;0.55;;;10.70;99.90;;;;;;5112124;28;20454;-75
2023/10/26 02:10:45;;;;;;;0.10;0.10;;;10.50;99.90;;;;;;5112662;28;20038;-75
2023/10/26 02:13:11;;;;;;;0.00;0.00;;;10.70;99.90;;;;;;5112056;28;20114;-73
2023/10/26 02:15:37;;;;;;;0.03;0.03;;;10.70;99.90;;;;;;5094715;28;20505;-73
2023/10/26 02:18:03;;;;;;;0.00;0.00;;;10.80;99.90;;;;;;5111754;28;20063;-72
2023/10/26 02:20:29;;;;;;;0.30;0.30;;;10.70;99.90;;;;;;5111734;28;20074;-72
2023/10/26 02:22:54;;;;;;;0.00;0.00;;;10.70;99.90;;;;;;5111640;28;20073;-72
2023/10/26 02:25:20;;;;;;;0.57;0.57;;;10.70;99.90;;;;;;5113054;28;20041;-74
2023/10/26 02:27:46;;;;;;;0.05;0.05;;;10.70;99.90;;;;;;5111572;28;20020;-73
2023/10/26 02:30:13;;;;;;;0.10;0.10;;;10.70;99.90;;;;;;5111808;28;20028;-73
2023/10/26 02:32:42;;;;;;;0.10;0.10;;;10.90;99.90;;;;;;5113135;28;20026;-75
2023/10/26 02:35:08;;;;;;;0.17;0.17;;;11.00;99.90;;;;;;5109003;28;20028;-72
2023/10/26 02:37:38;;;;;;;0.10;0.10;;;11.00;99.90;;;;;;5101273;28;20038;-73
2023/10/26 02:40:10;;;;;;;0.10;0.10;;;11.00;99.90;;;;;;5112774;28;20035;-73
2023/10/26 02:42:37;;;;;;;0.85;0.85;;;11.00;99.90;;;;;;5111669;28;20365;-72
2023/10/26 02:45:03;;;;;;;0.32;0.32;;;10.90;99.90;;;;;;5094198;28;20507;-73
2023/10/26 02:47:30;;;;;;;0.00;0.00;;;10.70;99.90;;;;;;5112890;28;20392;-72
2023/10/26 02:49:55;;;;;;;0.10;0.10;;;10.60;99.90;;;;;;5112663;28;20038;-73
2023/10/26 02:52:21;;;;;;;0.55;0.55;;;10.80;99.90;;;;;;5112803;28;20016;-73
2023/10/26 02:54:47;;;;;;;0.30;0.30;;;10.60;99.90;;;;;;5094435;28;20020;-74
2023/10/26 02:57:15;;;;;;;0.10;0.10;;;10.50;99.90;;;;;;5112639;28;20502;-73
2023/10/26 02:59:41;;;;;;;0.20;0.20;;;10.60;99.90;;;;;;5104791;28;20064;-73
2023/10/26 03:02:07;;;;;;;0.10;0.10;;;10.40;99.90;;;;;;5092328;28;20055;-74
2023/10/26 03:04:37;;;;;;;2.72;1.23;;;10.50;99.90;;;;;;5095371;28;20047;-72
2023/10/26 03:07:03;;;;;;;0.32;0.32;;;10.40;99.90;;;;;;5110123;28;20517;-72
2023/10/26 03:09:29;;;;;;;0.10;0.10;;;10.30;99.90;;;;;;5080001;28;20020;-72
2023/10/26 03:11:55;;;;;;;0.10;0.10;;;10.40;99.90;;;;;;5112727;28;20429;-72
2023/10/26 03:14:21;;;;;;;1.55;1.13;;;10.60;99.90;;;;;;5112444;28;20055;-72
2023/10/26 03:16:47;;;;;;;0.55;0.55;;;10.50;99.90;;;;;;5103805;28;20035;-72
2023/10/26 03:19:13;;;;;;;0.32;0.32;;;10.60;99.90;;;;;;5104337;28;20506;-72
2023/10/26 03:21:39;;;;;;;0.05;0.05;;;10.80;99.90;;;;;;5111303;28;20020;-74
2023/10/26 03:24:05;;;;;;;0.10;0.10;;;10.80;99.90;;;;;;5115330;28;20027;-72
2023/10/26 03:26:31;;;;;;;0.65;0.65;;;10.90;99.90;;;;;;5116511;28;20024;-75
2023/10/26 03:28:57;;;;;;;0.10;0.10;;;11.00;99.90;;;;;;5116074;28;20104;-74
2023/10/26 03:31:23;;;;;;;0.73;0.73;;;11.10;99.90;;;;;;5114692;28;20024;-72
2023/10/26 03:33:49;;;;;;;0.50;0.50;;;11.00;99.90;;;;;;5107334;28;20035;-73
2023/10/26 03:36:20;;;;;;;0.85;0.77;;;10.90;99.90;;;;;;5107659;28;20483;-72
2023/10/26 03:38:47;;;;;;;0.37;0.37;;;10.90;99.90;;;;;;5115854;28;20088;-73
2023/10/26 03:41:13;;;;;;;0.10;0.10;;;10.90;99.90;;;;;;5114706;28;20475;-72
2023/10/26 03:43:39;;;;;;;0.40;0.40;;;10.90;99.90;;;;;;5114508;28;20039;-74
2023/10/26 03:46:05;;;;;;;0.10;0.10;;;10.90;99.90;;;;;;5114657;28;20032;-74
2023/10/26 03:48:32;;;;;;;0.10;0.10;;;11.00;99.90;;;;;;5115337;28;20031;-73
2023/10/26 03:50:57;;;;;;;0.20;0.20;;;10.90;99.90;;;;;;5115684;28;20032;-74
2023/10/26 03:53:23;;;;;;;0.30;0.30;;;10.90;99.90;;;;;;5114450;28;20072;-75
2023/10/26 03:55:49;;;;;;;0.10;0.10;;;10.90;99.90;;;;;;5114742;28;20057;-75
2023/10/26 03:58:15;;;;;;;1.10;0.63;;;10.90;99.90;;;;;;5115795;28;20108;-75
2023/10/26 04:00:41;;;;;;;0.10;0.10;;;11.00;99.90;;;;;;5114564;28;20051;-75
2023/10/26 04:03:07;;;;;;;2.65;2.47;;;11.10;99.90;;;;;;5114952;28;20491;-75
2023/10/26 04:05:33;;;;;;;0.10;0.10;;;11.00;99.90;;;;;;5115184;28;20044;-74
2023/10/26 04:08:02;;;;;;;1.85;1.08;;;11.00;99.90;;;;;;5107779;28;20031;-75
2023/10/26 04:10:28;;;;;;;0.55;0.55;;;10.90;99.90;;;;;;5107889;28;20035;-75
2023/10/26 04:12:54;;;;;;;0.85;0.85;;;10.80;99.90;;;;;;5097109;28;20020;-75
2023/10/26 04:15:20;;;;;;;1.30;1.05;;;11.00;99.90;;;;;;5115087;28;20023;-75
2023/10/26 04:17:46;;;;;;;0.00;0.00;;;11.00;99.90;;;;;;5115087;28;20392;-75
2023/10/26 04:20:13;;;;;;;0.45;0.45;;;11.20;99.90;;;;;;5114988;28;20031;-75
2023/10/26 04:22:39;;;;;;;0.10;0.10;;;11.30;99.90;;;;;;5115376;27;20031;-75
2023/10/26 04:25:05;;;;;;;0.10;0.10;;;11.50;99.90;;;;;;5114952;28;20027;-73
2023/10/26 04:27:32;;;;;;;0.05;0.05;;;11.50;99.90;;;;;;5115098;28;20153;-75
2023/10/26 04:29:58;;;;;;;0.20;0.20;;;11.50;99.90;;;;;;5109287;28;20530;-76
2023/10/26 04:32:24;;;;;;;0.00;0.00;;;11.60;99.90;;;;;;5106143;28;20028;-75
2023/10/26 04:34:50;;;;;;;0.00;0.00;;;11.60;99.90;;;;;;5114425;28;20055;-74
2023/10/26 04:37:16;;;;;;;0.00;0.00;;;11.70;99.90;;;;;;5114575;28;20024;-76
2023/10/26 04:39:43;;;;;;;0.00;0.00;;;11.80;99.90;;;;;;5114752;28;20032;-75
2023/10/26 04:42:12;;;;;;;0.00;0.00;;;11.90;99.90;;;;;;5114891;28;20027;-75
2023/10/26 04:44:39;;;;;;;0.10;0.10;;;12.00;99.90;;;;;;5112864;28;20074;-75
2023/10/26 04:47:05;;;;;;;1.42;1.35;;;12.00;99.90;;;;;;5114593;28;20032;-75
2023/10/26 04:49:33;;;;;;;0.00;0.00;;;12.00;99.90;;;;;;5114616;28;20031;-74
2023/10/26 04:51:59;;;;;;;0.08;0.08;;;11.90;99.90;;;;;;5114476;28;20035;-75
2023/10/26 04:54:27;;;;;;;0.10;0.10;;;11.60;99.90;;;;;;5114579;28;20076;-75
2023/10/26 04:56:54;;;;;;;0.00;0.00;;;11.50;99.90;;;;;;5113083;28;20027;-75
2023/10/26 04:59:19;;;;;;;0.22;0.22;;;11.50;99.90;;;;;;5112994;28;20031;-75
2023/10/26 05:01:45;;;;;;;0.03;0.03;;;11.40;99.90;;;;;;5102298;28;20043;-75
2023/10/26 05:04:11;;;;;;;0.00;0.00;;;11.40;99.90;;;;;;5113933;27;20038;-73
2023/10/26 05:06:37;;;;;;;0.00;0.00;;;11.50;99.90;;;;;;5112610;28;20463;-75
2023/10/26 05:09:05;;;;;;;0.00;0.00;;;11.30;99.90;;;;;;5099991;28;20032;-73
2023/10/26 05:11:32;;;;;;;0.10;0.10;;;11.30;99.90;;;;;;5114351;28;20024;-75
2023/10/26 05:13:57;;;;;;;0.03;0.03;;;11.20;99.90;;;;;;5112548;28;20023;-73
2023/10/26 05:16:23;;;;;;;0.00;0.00;;;11.20;99.90;;;;;;5114103;28;20036;-74
2023/10/26 05:18:49;;;;;;;0.10;0.10;;;11.10;99.90;;;;;;5114207;28;20023;-73
2023/10/26 05:21:15;;;;;;;0.00;0.00;;;11.10;99.90;;;;;;5112462;28;20360;-74
2023/10/26 05:23:43;;;;;;;1.55;1.17;;;11.10;99.90;;;;;;5113971;28;20026;-74
2023/10/26 05:26:09;;;;;;;0.30;0.30;;;11.00;99.90;;;;;;5113678;28;20032;-74
2023/10/26 05:28:34;;;;;;;0.10;0.10;;;10.90;99.90;;;;;;5113615;28;20023;-75
2023/10/26 05:31:00;;;;;;;0.05;0.05;;;10.90;99.90;;;;;;5113795;28;20438;-74
2023/10/26 05:33:26;;;;;;;0.00;0.00;;;10.80;99.90;;;;;;5113720;28;20076;-75
2023/10/26 05:35:51;;;;;;;0.00;0.00;;;10.80;99.90;;;;;;5113692;28;20122;-74
2023/10/26 05:38:19;;;;;;;0.00;0.00;;;10.80;99.90;;;;;;5113601;28;20020;-72
2023/10/26 05:40:55;;;;;;;0.22;0.22;;;10.90;99.90;;;;;;5113782;28;20038;-72
2023/10/26 05:43:22;;;;;;;0.00;0.00;;;11.10;99.90;;;;;;5113148;28;20011;-72
2023/10/26 05:45:47;;;;;;;0.00;0.00;;;11.00;99.90;;;;;;5111798;28;20035;-73
2023/10/26 05:48:13;;;;;;;0.10;0.10;;;10.90;99.90;;;;;;5113012;28;20521;-72
2023/10/26 05:50:43;;;;;;;0.00;0.00;;;10.90;99.90;;;;;;5111889;28;20032;-73
2023/10/26 05:53:10;;;;;;;0.10;0.10;;;10.90;99.90;;;;;;5113245;28;20015;-73
2023/10/26 05:55:36;;;;;;;0.00;0.00;;;10.80;99.90;;;;;;5113663;28;20380;-72
2023/10/26 05:58:03;;;;;;;0.05;0.05;;;10.70;99.90;;;;;;5113268;28;20059;-73
2023/10/26 06:00:29;;;;;;;0.10;0.10;;;10.70;99.90;;;;;;5106006;28;20028;-74
2023/10/26 06:02:55;;;;;;;0.10;0.10;;;10.70;99.90;;;;;;5104433;28;20053;-73
2023/10/26 06:05:22;;;;;;;0.00;0.00;;;10.60;99.90;;;;;;5111099;28;20069;-73
2023/10/26 06:07:47;;;;;;;0.20;0.20;;;10.60;99.90;;;;;;5108284;28;20028;-73
2023/10/26 06:10:13;;;;;;;0.00;0.00;;;10.70;99.90;;;;;;5100486;27;20066;-72
2023/10/26 06:12:39;;;;;;;0.88;0.68;;;10.70;99.90;;;;;;5096738;27;20084;-73
2023/10/26 06:15:05;;;;;;;0.10;0.10;;;10.70;99.90;;;;;;5108993;27;20095;-73
2023/10/26 06:17:31;;;;;;;0.10;0.10;;;10.50;99.90;;;;;;5100224;27;20034;-72
2023/10/26 06:19:57;;;;;;;0.03;0.03;;;10.30;99.90;;;;;;5099878;28;20103;-73
2023/10/26 06:22:22;;;;;;;0.00;0.00;;;10.30;99.90;;;;;;5095043;28;20032;-73
2023/10/26 06:24:48;;;;;;;2.75;1.13;;;10.30;99.90;;;;;;5098146;28;20050;-72
2023/10/26 06:27:14;;;;;;;0.10;0.10;;;10.40;99.90;;;;;;5120584;27;20049;-72
2023/10/26 06:29:42;;;;;;;0.13;0.13;;;10.30;99.90;;;;;;5098335;27;20055;-72
2023/10/26 06:32:07;;;;;;;0.75;0.75;;;10.30;99.90;;;;;;5098638;28;20047;-75
2023/10/26 06:34:33;;;;;;;0.20;0.20;;;10.40;99.90;;;;;;5094671;28;20071;-75
2023/10/26 06:36:59;;;;;;;5.97;3.22;;;10.50;99.90;;;;;;5106161;28;20019;-74
2023/10/26 06:39:24;;;;;;;0.35;0.35;;;10.20;99.90;;;;;;5110454;28;20064;-76
2023/10/26 06:41:50;;;;;;;0.10;0.10;;;10.10;99.90;;;;;;5100111;28;20059;-75
2023/10/26 06:44:16;;;;;;;0.10;0.10;;;10.10;99.90;;;;;;5094010;28;20050;-75
2023/10/26 06:46:42;;;;;;;0.10;0.10;;;10.10;99.90;;;;;;5094290;28;20153;-75
2023/10/26 06:49:08;;;;;;;0.05;0.05;;;10.20;99.90;;;;;;5111985;27;20106;-75
2023/10/26 06:51:34;;;;;;;0.00;0.00;;;10.20;99.90;;;;;;5109521;27;20028;-75
2023/10/26 06:53:59;;;;;;;0.28;0.20;;;10.20;99.90;;;;;;5097832;28;20024;-75
2023/10/26 06:56:25;;;;;;;3.75;3.17;;;10.40;99.90;;;;;;5092024;28;20028;-75
2023/10/26 06:58:51;;;;;;;0.57;0.57;;;10.40;99.90;;;;;;5127926;27;20015;-75
2023/10/26 07:01:17;;;;;;;0.20;0.20;;;10.40;99.90;;;;;;5124929;27;20034;-73
2023/10/26 07:03:42;;;;;;;0.45;0.45;;;10.50;99.90;;;;;;5110465;27;20039;-75
2023/10/26 07:06:08;;;;;;;1.30;1.20;;;10.40;99.90;;;;;;5102667;27;20476;-75
2023/10/26 07:08:34;;;;;;;0.00;0.00;;;10.50;99.90;;;;;;5098590;27;20077;-75
2023/10/26 07:11:07;;;;;;;0.00;0.00;;;10.70;99.90;;;;;;5121589;27;20068;-76
2023/10/26 07:13:33;;;;;;;0.10;0.10;;;10.70;99.90;;;;;;5133655;27;20015;-75
2023/10/26 07:16:00;;;;;;;0.10;0.10;;;10.90;99.90;;;;;;5107476;27;20502;-74
2023/10/26 07:18:26;;;;;;;0.35;0.35;;;10.90;99.90;;;;;;5099749;27;20050;-72
2023/10/26 07:20:53;;;;;;;0.20;0.20;;;10.90;99.90;;;;;;5106402;27;20031;-72
2023/10/26 07:23:19;;;;;;;0.10;0.10;;;11.20;99.90;;;;;;5095461;28;20016;-73
2023/10/26 07:25:44;;;;;;;0.32;0.32;;;11.10;99.90;;;;;;5094166;28;20066;-73
2023/10/26 07:28:11;;;;;;;9.43;2.05;;;11.00;99.90;;;;;;5095624;28;20063;-72
2023/10/26 07:30:42;;;;;;;0.40;0.40;;;11.00;99.90;;;;;;5097677;28;20027;-74
2023/10/26 07:33:07;;;;;;;2.88;2.65;;;11.00;99.90;;;;;;5101880;28;20078;-73
2023/10/26 07:35:40;;;;;;;1.05;0.80;;;11.20;99.90;;;;;;5094972;28;20490;-73
2023/10/26 07:38:08;;;;;;;0.52;0.52;;;11.20;99.90;;;;;;5094124;28;20024;-73
2023/10/26 07:40:34;;;;;;;0.55;0.55;;;11.30;99.90;;;;;;5095122;28;20023;-71
2023/10/26 07:43:00;;;;;;;3.40;1.55;;;11.20;99.90;;;;;;5094016;28;20593;-71
2023/10/26 07:45:26;;;;;;;0.20;0.20;;;11.30;99.90;;;;;;5094055;28;20043;-71
2023/10/26 07:47:51;;;;;;;0.52;0.52;;;11.20;99.90;;;;;;5099640;28;20024;-71
2023/10/26 07:50:20;;;;;;;1.85;1.75;;;11.30;99.90;;;;;;5093802;28;20016;-72
2023/10/26 07:52:46;;;;;;;0.95;0.95;;;11.20;99.90;;;;;;5095337;28;20032;-71
2023/10/26 07:55:13;;;;;;;1.27;1.15;;;11.20;99.90;;;;;;5095140;28;20081;-71
2023/10/26 07:57:41;;;;;;;5.00;2.75;;;11.10;99.90;;;;;;5093961;28;20036;-71
2023/10/26 08:00:08;;;;;;;5.63;2.35;;;11.20;99.90;;;;;;5094836;28;20380;-71
2023/10/26 08:02:38;;;;;;;2.90;0.97;;;11.00;99.90;;;;;;5093859;28;20036;-71
2023/10/26 08:05:04;;;;;;;2.20;0.65;;;11.00;99.90;;;;;;5092947;28;20036;-71
2023/10/26 08:07:30;;;;;;;0.10;0.10;;;11.00;99.90;;;;;;5094712;28;20020;-71
2023/10/26 08:09:56;;;;;;;0.73;0.73;;;11.20;99.90;;;;;;5103833;28;20020;-72
2023/10/26 08:12:23;;;;;;;0.10;0.10;;;11.20;99.90;;;;;;5115341;28;20026;-72
2023/10/26 08:14:51;;;;;;;0.30;0.30;;;11.20;99.90;;;;;;5114031;28;20383;-71
2023/10/26 08:17:16;;;;;;;0.43;0.43;;;11.30;99.90;;;;;;5115349;28;20422;-72
2023/10/26 08:19:42;;;;;;;0.10;0.10;;;11.60;99.90;;;;;;5100749;28;20023;-71
2023/10/26 08:22:10;;;;;;;1.95;1.25;;;11.50;99.90;;;;;;5115258;28;20478;-71
2023/10/26 08:24:36;;;;;;;0.10;0.10;;;11.50;99.90;;;;;;5114715;28;20471;-72
2023/10/26 08:27:03;;;;;;;4.47;3.40;;;11.60;99.90;;;;;;5113941;28;20042;-71
2023/10/26 08:29:29;;;;;;;0.43;0.43;;;11.70;99.90;;;;;;5114824;28;20019;-71
2023/10/26 08:31:56;;;;;;;0.05;0.05;;;11.80;99.90;;;;;;5115085;28;20027;-71
2023/10/26 08:34:22;;;;;;;0.85;0.70;;;11.80;99.90;;;;;;5113799;28;20024;-72
2023/10/26 08:36:48;;;;;;;0.10;0.10;;;11.90;99.90;;;;;;5114730;28;20387;-71
2023/10/26 08:39:14;;;;;;;1.50;1.40;;;11.70;99.90;;;;;;5114815;28;20036;-72
2023/10/26 08:41:45;;;;;;;1.00;0.98;;;11.80;99.90;;;;;;5114684;28;20019;-73
2023/10/26 08:44:11;;;;;;;2.17;1.08;;;11.90;99.90;;;;;;5114759;28;20027;-73
2023/10/26 08:46:38;;;;;;;0.50;0.50;;;11.90;99.90;;;;;;5114521;28;20475;-71
2023/10/26 08:49:06;;;;;;;0.68;0.68;;;12.00;99.90;;;;;;5113448;28;20039;-72
2023/10/26 08:51:32;;;;;;;0.85;0.80;;;12.10;99.90;;;;;;5114059;28;20016;-72
2023/10/26 08:53:58;;;;;;;0.22;0.22;;;12.10;99.90;;;;;;5114759;28;20024;-71
2023/10/26 08:56:24;;;;;;;1.75;1.13;;;12.10;99.90;;;;;;5113116;28;20032;-72
2023/10/26 08:58:55;;;;;;;0.38;0.38;;;12.10;99.90;;;;;;5100327;28;20016;-71
2023/10/26 09:01:21;;;;;;;0.83;0.83;;;12.20;99.90;;;;;;5114451;28;20395;-71
2023/10/26 09:03:47;;;;;;;3.58;0.95;;;12.20;99.90;;;;;;5107585;28;20032;-71
2023/10/26 09:06:12;;;;;;;0.00;0.00;;;12.30;99.90;;;;;;5114079;28;20112;-71
2023/10/26 09:08:38;;;;;;;3.50;0.95;;;12.30;99.90;;;;;;5101130;28;20085;-71
2023/10/26 09:11:21;;;;;;;0.40;0.40;;;12.30;99.90;;;;;;5112968;28;20015;-71
2023/10/26 09:13:47;;;;;;;0.00;0.00;;;12.30;99.90;;;;;;5114404;28;20032;-72
2023/10/26 09:16:13;;;;;;;0.10;0.10;;;12.20;99.90;;;;;;5114106;28;20049;-71
2023/10/26 09:18:38;;;;;;;1.45;0.80;;;12.30;99.90;;;;;;5114302;28;20019;-72
2023/10/26 09:21:07;;;;;;;1.17;1.08;;;12.20;99.90;;;;;;5112594;28;20459;-71
2023/10/26 09:23:35;;;;;;;0.10;0.10;;;12.00;99.90;;;;;;5113872;28;20088;-72
2023/10/26 09:26:07;;;;;;;0.30;0.30;;;11.90;99.90;;;;;;5113838;28;20372;-72
2023/10/26 09:28:53;;;;;;;0.10;0.10;;;11.90;99.90;;;;;;5114062;28;20491;-72
2023/10/26 09:31:19;;;;;;;0.40;0.40;;;12.00;99.90;;;;;;5113412;28;20061;-72
2023/10/26 09:33:46;;;;;;;9.35;1.00;;;11.90;99.90;;;;;;5113901;28;20036;-71
2023/10/26 09:36:17;;;;;;;7.78;2.28;;;11.90;99.90;;;;;;5113548;28;20035;-71
2023/10/26 09:38:43;;;;;;;2.17;2.08;;;11.70;99.90;;;;;;5114135;28;20110;-72
2023/10/26 09:41:11;;;;;;;1.65;0.95;;;11.90;99.90;;;;;;5112195;28;20019;-71
2023/10/26 09:43:40;;;;;;;0.17;0.17;;;11.80;99.90;;;;;;5113614;28;20019;-71
2023/10/26 09:46:07;;;;;;;1.58;0.95;;;11.80;99.90;;;;;;5112394;28;20032;-71
2023/10/26 09:48:33;;;;;;;0.32;0.32;;;12.20;99.90;;;;;;5113330;28;20046;-71
2023/10/26 09:51:01;;;;;;;0.65;0.65;;;12.30;99.90;;;;;;5113071;28;20019;-72
2023/10/26 09:53:41;;;;;;;0.10;0.10;;;12.30;99.90;;;;;;5113602;28;20051;-71
2023/10/26 09:56:16;;;;;;;2.38;1.38;;;12.50;99.90;;;;;;5113586;28;20042;-71
2023/10/26 09:58:42;;;;;;;1.88;1.73;;;12.50;99.90;;;;;;5113303;28;20060;-71
2023/10/26 10:01:36;;;;;;;0.13;0.13;;;12.60;99.90;;;;;;5113574;28;20055;-71
2023/10/26 10:04:09;;;;;;;9.70;1.55;;;12.60;99.90;;;;;;5099784;28;20059;-71
2023/10/26 10:06:43;;;;;;;0.45;0.45;;;12.60;99.90;;;;;;5113530;28;20042;-72
2023/10/26 10:09:10;;;;;;;3.08;2.78;;;12.50;99.90;;;;;;5096059;28;20085;-72
2023/10/26 10:11:36;;;;;;;0.00;0.00;;;12.40;99.90;;;;;;5113468;28;20111;-71
2023/10/26 10:14:02;;;;;;;3.70;1.95;;;12.50;99.90;;;;;;5113100;28;20531;-72
2023/10/26 10:16:48;;;;;;;0.00;0.00;;;12.50;99.90;;;;;;5112136;28;20115;-71
2023/10/26 10:19:26;;;;;;;1.42;1.33;;;12.20;99.90;;;;;;5112537;28;20031;-71
2023/10/26 10:21:52;;;;;;;0.45;0.45;;;12.40;99.90;;;;;;5113400;28;20020;-71
2023/10/26 10:24:44;;;;;;;0.65;0.65;;;12.40;99.90;;;;;;5112814;28;20392;-71
2023/10/26 10:27:11;;;;;;;1.05;0.95;;;12.50;99.90;;;;;;5111087;28;20047;-71
2023/10/26 10:29:39;;;;;;;0.85;0.85;;;12.60;99.90;;;;;;5111625;28;20529;-71
2023/10/26 10:32:05;;;;;;;1.38;1.27;;;12.70;99.90;;;;;;5108223;28;20031;-72
2023/10/26 10:34:45;;;;;;;2.15;0.47;;;12.70;99.90;;;;;;5116670;28;20030;-71
2023/10/26 10:37:12;;;;;;;0.55;0.52;;;12.70;99.90;;;;;;5117517;28;20071;-71
2023/10/26 10:39:59;;;;;;;0.08;0.08;;;12.80;99.90;;;;;;5116971;28;20426;-72
2023/10/26 10:42:25;;;;;;;0.10;0.10;;;13.00;99.90;;;;;;5115957;28;20036;-72
2023/10/26 10:44:52;;;;;;;1.75;0.63;;;12.90;99.90;;;;;;5115672;28;20484;-71
2023/10/26 10:47:18;;;;;;;1.13;0.85;;;13.20;99.90;;;;;;5116743;28;20097;-71
2023/10/26 10:49:44;;;;;;;1.33;0.98;;;13.30;99.90;;;;;;5116948;28;20063;-71
2023/10/26 10:52:13;;;;;;;0.10;0.10;;;13.30;99.90;;;;;;5116977;28;20468;-72
2023/10/26 10:54:39;;;;;;;0.10;0.10;;;13.10;99.90;;;;;;5116930;28;20042;-71
2023/10/26 10:57:05;;;;;;;0.40;0.40;;;13.20;99.90;;;;;;5116792;28;20016;-72
2023/10/26 10:59:31;;;;;;;1.48;1.38;;;13.20;99.90;;;;;;5115631;28;20032;-71
2023/10/26 11:02:13;;;;;;;0.00;0.00;;;13.30;99.90;;;;;;5101498;28;20020;-72
2023/10/26 11:04:55;;;;;;;0.93;0.93;;;13.50;99.90;;;;;;5104314;28;20127;-72
2023/10/26 11:07:26;;;;;;;2.08;1.98;;;13.40;99.90;;;;;;5078010;28;20130;-71
2023/10/26 11:09:56;;;;;;;1.30;0.73;;;13.30;99.90;;;;;;5105296;28;20032;-71
2023/10/26 11:12:22;;;;;;;3.42;1.85;;;12.90;99.90;;;;;;5116594;28;20073;-71
2023/10/26 11:14:49;;;;;;;2.97;2.58;;;12.90;99.90;;;;;;5116461;28;20040;-71
2023/10/26 11:17:19;;;;;;;3.33;2.65;;;12.90;99.90;;;;;;5116458;28;20016;-71
2023/10/26 11:19:46;;;;;;;0.25;0.25;;;12.70;99.90;;;;;;5116395;28;20172;-72
2023/10/26 11:22:14;;;;;;;2.30;2.13;;;12.80;99.90;;;;;;5116457;28;20023;-72
2023/10/26 11:24:40;;;;;;;1.45;0.82;;;12.80;99.90;;;;;;5116244;28;20054;-71
2023/10/26 11:27:10;;;;;;;0.00;0.00;;;12.80;99.90;;;;;;5116511;28;20442;-71
2023/10/26 11:29:41;;;;;;;0.10;0.10;;;13.00;99.90;;;;;;5115906;28;20074;-71
2023/10/26 11:32:20;;;;;;;1.40;1.30;;;13.10;99.90;;;;;;5115784;28;20081;-71
2023/10/26 11:35:09;;;;;;;3.35;2.60;;;13.40;99.90;;;;;;5115984;28;20028;-71
2023/10/26 11:37:36;;;;;;;3.28;3.03;;;13.50;99.90;;;;;;5116284;28;20028;-71
2023/10/26 11:40:06;;;;;;;0.45;0.45;;;13.20;99.90;;;;;;5114518;28;20035;-71
2023/10/26 11:42:53;;;;;;;0.00;0.00;;;13.40;99.90;;;;;;5114862;28;20460;-71
2023/10/26 11:45:25;;;;;;;0.10;0.10;;;13.50;99.90;;;;;;5101346;28;20051;-70
2023/10/26 11:47:55;;;;;;;0.08;0.08;;;13.40;99.90;;;;;;5115876;28;20480;-72
2023/10/26 11:50:22;;;;;;;1.20;0.55;;;13.50;99.90;;;;;;5101808;28;20035;-71
2023/10/26 11:52:49;;;;;;;1.48;1.38;;;13.40;99.90;;;;;;5115864;28;20035;-70
2023/10/26 11:55:15;;;;;;;0.20;0.20;;;13.30;99.90;;;;;;5115482;28;20102;-71
2023/10/26 11:57:41;;;;;;;2.05;1.40;;;13.30;99.90;;;;;;5115860;28;20027;-71
2023/10/26 12:00:09;;;;;;;2.25;2.15;;;13.30;99.90;;;;;;5115289;28;20028;-71
2023/10/26 12:02:38;;;;;;;0.33;0.33;;;13.30;99.90;;;;;;5115523;28;20032;-71
2023/10/26 12:05:05;;;;;;;0.88;0.88;;;13.30;99.90;;;;;;5115237;28;20043;-71
2023/10/26 12:07:31;;;;;;;1.10;0.98;;;13.40;99.90;;;;;;5110758;28;20095;-71
2023/10/26 12:09:57;;;;;;;0.05;0.05;;;13.30;99.90;;;;;;5104755;28;20055;-71
2023/10/26 12:12:22;;;;;;;0.70;0.70;;;13.10;99.90;;;;;;5115623;28;20110;-71
2023/10/26 12:14:48;;;;;;;0.88;0.88;;;13.30;99.90;;;;;;5115048;28;20422;-71
2023/10/26 12:17:14;;;;;;;0.98;0.95;;;13.50;99.90;;;;;;5114048;28;20028;-71
2023/10/26 12:19:40;;;;;;;0.10;0.10;;;13.60;99.90;;;;;;5115276;28;20110;-71
2023/10/26 12:22:05;;;;;;;2.17;1.15;;;13.70;99.90;;;;;;5114027;28;20019;-72
2023/10/26 12:24:32;;;;;;;1.65;1.55;;;13.70;99.90;;;;;;5115228;28;20085;-71
2023/10/26 12:26:59;;;;;;;0.45;0.45;;;13.70;99.90;;;;;;5114966;28;20028;-71
2023/10/26 12:29:25;;;;;;;3.17;1.92;;;13.50;99.90;;;;;;5113403;28;20043;-71
2023/10/26 12:31:51;;;;;;;1.40;1.30;;;13.50;99.90;;;;;;5115038;28;20080;-71
2023/10/26 12:34:19;;;;;;;2.25;1.75;;;13.40;99.90;;;;;;5113743;28;20024;-71
2023/10/26 12:36:45;;;;;;;0.40;0.40;;;13.30;99.90;;;;;;5096645;28;20036;-71
2023/10/26 12:39:11;;;;;;;1.33;1.23;;;13.40;99.90;;;;;;5114828;28;20024;-71
2023/10/26 12:41:37;;;;;;;0.32;0.32;;;13.50;99.90;;;;;;5114534;28;20026;-71
2023/10/26 12:44:03;;;;;;;0.47;0.47;;;13.60;99.90;;;;;;5114267;28;20122;-71
2023/10/26 12:46:29;;;;;;;0.00;0.00;;;13.60;99.90;;;;;;5115201;28;20046;-71
2023/10/26 12:48:55;;;;;;;0.10;0.10;;;13.60;99.90;;;;;;5113620;28;20053;-71